Time;durP1;ratioP1;P1;durP2;ratioP2;P2;SDS_P1;SDS_P2;PMS_P1;PMS_P2;Temp;Humidity;BMP_temperature;BMP_pressure;BME280_temperature;BME280_humidity;BME280_pressure;Samples;Min_cycle;Max_cycle;Signal;HPM_P1;HPM_P2
2022/05/05 00:00:12;;;;;;;12.07;5.15;;;11.30;99.90;;;;;;5091194;28;20031;-46
2022/05/05 00:02:38;;;;;;;12.77;6.43;;;11.30;99.90;;;;;;5090233;28;20016;-46
2022/05/05 00:05:05;;;;;;;8.07;5.43;;;11.30;99.70;;;;;;5090821;28;20051;-46
2022/05/05 00:07:31;;;;;;;10.75;5.80;;;11.30;99.80;;;;;;5090479;28;20562;-46
2022/05/05 00:09:56;;;;;;;11.20;5.47;;;11.30;99.30;;;;;;5089074;28;20119;-47
2022/05/05 00:15:07;;;;;;;6.88;4.70;;;11.40;99.50;;;;;;5091135;28;20031;-46
2022/05/05 00:17:34;;;;;;;8.43;5.57;;;11.40;99.20;;;;;;5090719;28;20036;-46
2022/05/05 00:20:00;;;;;;;14.38;5.38;;;11.50;99.40;;;;;;5090821;28;20055;-46
2022/05/05 00:22:25;;;;;;;13.32;5.55;;;11.50;99.10;;;;;;5086662;28;20385;-46
2022/05/05 00:24:51;;;;;;;14.05;6.50;;;11.50;99.20;;;;;;5084731;28;20016;-46
2022/05/05 00:27:17;;;;;;;12.48;6.55;;;11.50;99.30;;;;;;5090638;28;20024;-46
2022/05/05 00:29:42;;;;;;;16.02;6.68;;;11.50;99.00;;;;;;5090470;28;20394;-46
2022/05/05 00:32:08;;;;;;;13.75;6.25;;;11.40;98.40;;;;;;5088594;28;20024;-47
2022/05/05 00:34:33;;;;;;;11.93;5.80;;;11.40;99.10;;;;;;5090381;28;20032;-45
2022/05/05 00:36:59;;;;;;;12.75;6.35;;;11.40;99.20;;;;;;5090243;28;20027;-46
2022/05/05 00:39:24;;;;;;;14.63;6.40;;;11.40;98.90;;;;;;5090322;28;20397;-47
2022/05/05 00:41:51;;;;;;;16.67;6.07;;;11.40;99.70;;;;;;5088125;28;20107;-46
2022/05/05 00:44:16;;;;;;;7.47;4.60;;;11.30;98.90;;;;;;5089944;28;20382;-47
2022/05/05 00:46:49;;;;;;;11.80;5.25;;;11.40;98.90;;;;;;5089969;28;20088;-46
2022/05/05 00:49:15;;;;;;;9.20;4.95;;;11.40;99.00;;;;;;5089935;28;20035;-46
2022/05/05 00:51:41;;;;;;;13.60;5.18;;;11.40;98.70;;;;;;5083549;28;20081;-46
2022/05/05 00:54:07;;;;;;;12.30;5.20;;;11.40;98.80;;;;;;5080718;28;20020;-48
2022/05/05 00:56:34;;;;;;;10.38;5.50;;;11.40;98.90;;;;;;5088184;28;20122;-46
2022/05/05 00:59:01;;;;;;;7.88;4.78;;;11.40;98.80;;;;;;5089414;28;20058;-47
2022/05/05 01:01:26;;;;;;;8.07;5.18;;;11.40;99.40;;;;;;5077407;28;20009;-46
2022/05/05 01:03:52;;;;;;;9.90;4.85;;;11.40;99.90;;;;;;5080652;28;20097;-45
2022/05/05 01:06:18;;;;;;;8.02;4.50;;;11.40;99.50;;;;;;5089789;28;20020;-45
2022/05/05 01:08:44;;;;;;;10.27;4.47;;;11.40;99.70;;;;;;5088162;28;20035;-46
2022/05/05 01:11:10;;;;;;;4.97;3.78;;;11.40;99.90;;;;;;5089853;28;20107;-46
2022/05/05 01:13:40;;;;;;;6.60;4.13;;;11.30;99.70;;;;;;5089035;28;20154;-47
2022/05/05 01:16:07;;;;;;;9.37;4.60;;;11.40;99.90;;;;;;5088299;28;20473;-47
2022/05/05 01:18:33;;;;;;;7.43;4.40;;;11.30;99.70;;;;;;5089697;28;20046;-46
2022/05/05 01:20:58;;;;;;;6.75;4.35;;;11.30;99.70;;;;;;5089598;28;20477;-46
2022/05/05 01:23:24;;;;;;;9.00;3.90;;;11.30;99.40;;;;;;5087178;28;20393;-46
2022/05/05 01:28:44;;;;;;;10.93;4.97;;;11.30;99.90;;;;;;5089663;28;20043;-47
2022/05/05 01:31:10;;;;;;;9.23;5.20;;;11.30;99.70;;;;;;5078128;28;20039;-46
2022/05/05 01:33:36;;;;;;;7.30;4.40;;;11.30;99.60;;;;;;5079953;28;20020;-47
2022/05/05 01:36:02;;;;;;;12.68;4.40;;;11.20;99.40;;;;;;5088987;28;20024;-46
2022/05/05 01:38:36;;;;;;;10.48;4.78;;;11.20;99.60;;;;;;5052189;28;20106;-46
2022/05/05 01:41:06;;;;;;;8.50;4.65;;;11.30;99.40;;;;;;5048889;28;20104;-47
2022/05/05 01:43:33;;;;;;;10.30;4.45;;;11.30;99.20;;;;;;5053228;28;20017;-45
2022/05/05 01:45:59;;;;;;;7.88;4.32;;;11.20;99.10;;;;;;5062457;28;20497;-46
2022/05/05 01:48:25;;;;;;;10.00;5.10;;;11.20;99.20;;;;;;5053205;28;20020;-46
2022/05/05 01:50:50;;;;;;;11.57;4.97;;;11.20;99.30;;;;;;5047404;28;20031;-45
2022/05/05 01:53:16;;;;;;;10.32;4.70;;;11.20;99.70;;;;;;5047708;28;20043;-46
2022/05/05 01:55:41;;;;;;;8.93;4.97;;;11.10;99.20;;;;;;5047406;28;20394;-46
2022/05/05 01:58:06;;;;;;;11.75;4.50;;;11.10;99.60;;;;;;5048862;28;20095;-45
2022/05/05 02:00:32;;;;;;;8.65;4.05;;;11.10;99.50;;;;;;5048869;28;20047;-46
2022/05/05 02:02:58;;;;;;;8.23;3.70;;;11.10;99.60;;;;;;5068342;28;20025;-46
2022/05/05 02:05:24;;;;;;;10.02;3.92;;;11.10;99.50;;;;;;5055010;28;20482;-46
2022/05/05 02:07:49;;;;;;;7.90;3.60;;;11.00;99.40;;;;;;5053864;28;20190;-45
2022/05/05 02:10:17;;;;;;;6.82;3.53;;;11.00;99.50;;;;;;5060446;28;20509;-46
2022/05/05 02:12:44;;;;;;;7.28;3.92;;;11.00;99.90;;;;;;5067982;28;20021;-46
2022/05/05 02:15:13;;;;;;;6.53;4.05;;;10.90;99.80;;;;;;5068823;28;20244;-46
2022/05/05 02:17:40;;;;;;;9.43;4.47;;;10.90;99.90;;;;;;5068555;28;20440;-46
2022/05/05 02:20:08;;;;;;;17.85;5.45;;;10.90;99.90;;;;;;5067154;28;20500;-46
2022/05/05 02:22:34;;;;;;;12.52;4.40;;;10.80;99.90;;;;;;5067435;28;20075;-46
2022/05/05 02:25:00;;;;;;;8.73;4.35;;;10.70;99.90;;;;;;5068191;28;20021;-47
2022/05/05 02:27:26;;;;;;;6.97;4.50;;;10.70;99.90;;;;;;5068414;28;20017;-46
2022/05/05 02:29:52;;;;;;;10.30;4.40;;;10.70;99.90;;;;;;5068465;28;20317;-45
2022/05/05 02:32:18;;;;;;;12.90;5.35;;;10.60;99.90;;;;;;5073471;28;20036;-45
2022/05/05 02:34:44;;;;;;;14.20;4.70;;;10.50;99.90;;;;;;5072303;28;20517;-47
2022/05/05 02:39:55;;;;;;;9.05;5.15;;;10.40;99.90;;;;;;5057687;28;20069;-46
2022/05/05 02:42:21;;;;;;;8.77;5.43;;;10.30;99.90;;;;;;5056472;28;20028;-46
2022/05/05 02:44:47;;;;;;;5.75;4.70;;;10.20;99.90;;;;;;5058848;28;20229;-38
2022/05/05 02:47:13;;;;;;;7.70;4.90;;;10.10;99.90;;;;;;5048061;28;20055;-38
2022/05/05 02:49:38;;;;;;;11.23;5.22;;;10.00;99.90;;;;;;5048152;28;20033;-38
2022/05/05 02:52:05;;;;;;;12.35;4.68;;;10.00;99.90;;;;;;5047468;28;20029;-38
2022/05/05 02:57:15;;;;;;;10.48;5.15;;;9.90;99.90;;;;;;5048081;28;20500;-37
2022/05/05 02:59:41;;;;;;;9.32;4.93;;;9.80;99.90;;;;;;5047816;28;20124;-38
2022/05/05 03:02:07;;;;;;;8.68;5.00;;;9.70;99.90;;;;;;5063454;28;20016;-37
2022/05/05 03:04:33;;;;;;;14.30;5.53;;;9.70;99.90;;;;;;5079584;28;20112;-38
2022/05/05 03:06:58;;;;;;;12.85;5.35;;;9.60;99.90;;;;;;5086702;28;20016;-38
2022/05/05 03:09:24;;;;;;;14.18;5.82;;;9.50;99.90;;;;;;5087756;28;20036;-38
2022/05/05 03:11:49;;;;;;;9.38;4.97;;;9.40;99.90;;;;;;5087386;28;20028;-38
2022/05/05 03:14:15;;;;;;;13.73;6.00;;;9.20;99.90;;;;;;5088080;28;20036;-38
2022/05/05 03:16:40;;;;;;;10.55;5.25;;;9.20;99.90;;;;;;5088343;28;20381;-38
2022/05/05 03:19:06;;;;;;;9.57;5.63;;;9.10;99.90;;;;;;5090472;28;20039;-37
2022/05/05 03:21:32;;;;;;;9.90;5.20;;;9.00;99.90;;;;;;5091643;28;20043;-38
2022/05/05 03:23:57;;;;;;;14.95;5.07;;;9.00;99.90;;;;;;5091187;28;20016;-38
2022/05/05 03:26:23;;;;;;;13.70;6.30;;;9.00;99.90;;;;;;5091578;28;20515;-38
2022/05/05 03:28:48;;;;;;;9.70;5.40;;;8.90;99.90;;;;;;5091534;28;20016;-37
2022/05/05 03:31:14;;;;;;;12.18;5.72;;;8.80;99.90;;;;;;5090619;28;20081;-38
2022/05/05 03:33:39;;;;;;;9.13;5.45;;;8.80;99.90;;;;;;5082577;28;20027;-38
2022/05/05 03:36:05;;;;;;;12.68;5.78;;;8.70;99.90;;;;;;5091278;28;20489;-38
2022/05/05 03:38:30;;;;;;;11.68;5.30;;;8.60;99.90;;;;;;5091182;28;20051;-38
2022/05/05 03:40:56;;;;;;;14.10;7.07;;;8.60;99.90;;;;;;5091323;28;20473;-38
2022/05/05 03:43:21;;;;;;;13.55;6.00;;;8.60;99.90;;;;;;5090619;28;20388;-39
2022/05/05 03:45:47;;;;;;;8.38;6.32;;;8.50;99.90;;;;;;5091319;28;20051;-38
2022/05/05 03:48:13;;;;;;;13.05;6.47;;;8.50;99.90;;;;;;5091094;28;20093;-38
2022/05/05 03:50:38;;;;;;;13.00;6.07;;;8.40;99.90;;;;;;5091119;28;20065;-37
2022/05/05 03:53:05;;;;;;;15.75;6.18;;;8.40;99.90;;;;;;5067196;28;20052;-38
2022/05/05 03:55:30;;;;;;;13.80;6.32;;;8.30;99.90;;;;;;5061821;28;20048;-37
2022/05/05 03:57:56;;;;;;;15.20;6.40;;;8.20;99.90;;;;;;5061365;28;20075;-38
2022/05/05 04:00:23;;;;;;;16.13;6.07;;;8.20;99.90;;;;;;5059644;28;20382;-38
2022/05/05 04:03:30;;;;;;;12.35;6.30;;;8.10;99.90;;;;;;5065253;28;20490;-37
2022/05/05 04:05:35;;;;;;;12.52;6.40;;;8.00;99.90;;;;;;5060022;28;20120;-38
2022/05/05 04:08:02;;;;;;;15.45;6.43;;;8.00;99.90;;;;;;5058309;28;20067;-38
2022/05/05 04:10:29;;;;;;;16.67;6.75;;;8.00;99.90;;;;;;5059936;28;20033;-37
2022/05/05 04:12:55;;;;;;;16.80;6.55;;;8.00;99.90;;;;;;5059909;28;20063;-37
2022/05/05 04:15:22;;;;;;;11.90;6.47;;;8.00;99.90;;;;;;5060338;28;20029;-38
2022/05/05 04:17:47;;;;;;;12.40;6.53;;;7.90;99.90;;;;;;5060486;28;20031;-37
2022/05/05 04:20:13;;;;;;;12.57;5.97;;;7.90;99.90;;;;;;5060883;28;20025;-37
2022/05/05 04:22:38;;;;;;;16.20;6.55;;;7.90;99.90;;;;;;5058215;28;20047;-37
2022/05/05 04:25:05;;;;;;;16.83;6.15;;;7.80;99.90;;;;;;5060257;28;20046;-37
2022/05/05 04:27:31;;;;;;;14.10;5.97;;;7.80;99.90;;;;;;5060385;28;20105;-37
2022/05/05 04:29:57;;;;;;;11.85;6.97;;;7.80;99.90;;;;;;5058832;28;20108;-37
2022/05/05 04:32:22;;;;;;;13.63;6.25;;;7.80;99.90;;;;;;5062322;28;20115;-37
2022/05/05 04:34:48;;;;;;;14.38;6.28;;;7.80;99.90;;;;;;5061066;28;20050;-37
2022/05/05 04:37:13;;;;;;;16.13;6.82;;;7.80;99.90;;;;;;5058596;28;20052;-37
2022/05/05 04:39:40;;;;;;;9.23;6.20;;;7.80;99.90;;;;;;5059141;28;20373;-37
2022/05/05 04:42:06;;;;;;;10.35;6.15;;;7.80;99.90;;;;;;5059714;28;20482;-37
2022/05/05 04:44:31;;;;;;;9.48;6.22;;;7.80;99.90;;;;;;5058347;28;20032;-37
2022/05/05 04:46:57;;;;;;;10.35;6.65;;;7.90;99.90;;;;;;5055009;28;20021;-37
2022/05/05 04:49:22;;;;;;;12.20;7.00;;;7.90;99.90;;;;;;5054421;28;20040;-38
2022/05/05 04:51:48;;;;;;;15.43;6.38;;;7.90;99.90;;;;;;5052947;28;20039;-37
2022/05/05 04:54:13;;;;;;;12.13;6.93;;;7.90;99.90;;;;;;5060363;28;20032;-37
2022/05/05 04:56:39;;;;;;;15.43;6.75;;;7.90;99.90;;;;;;5057550;28;20130;-38
2022/05/05 04:59:04;;;;;;;10.57;6.38;;;7.90;99.90;;;;;;5059257;28;20029;-38
2022/05/05 05:01:30;;;;;;;12.85;6.47;;;7.90;99.90;;;;;;5059846;28;20040;-38
2022/05/05 05:03:55;;;;;;;13.25;6.35;;;8.00;99.90;;;;;;5066168;28;20038;-38
2022/05/05 05:06:21;;;;;;;15.00;6.43;;;8.00;99.90;;;;;;5064949;28;20017;-37
2022/05/05 05:08:47;;;;;;;13.95;6.18;;;8.10;99.90;;;;;;5065786;28;20032;-37
2022/05/05 05:11:12;;;;;;;13.05;6.90;;;8.20;99.90;;;;;;5085812;28;20043;-38
2022/05/05 05:13:38;;;;;;;10.52;6.28;;;8.20;99.90;;;;;;5073686;28;20024;-38
2022/05/05 05:16:04;;;;;;;10.00;6.15;;;8.20;99.90;;;;;;5080259;28;20028;-37
2022/05/05 05:18:30;;;;;;;8.15;5.80;;;8.20;99.90;;;;;;5081616;28;20024;-37
2022/05/05 05:20:56;;;;;;;11.38;7.07;;;8.20;99.90;;;;;;5073214;28;20058;-37
2022/05/05 05:23:21;;;;;;;13.05;7.35;;;8.30;99.90;;;;;;5075992;28;20021;-38
2022/05/05 05:25:47;;;;;;;9.93;6.00;;;8.30;99.90;;;;;;5077440;28;20436;-37
2022/05/05 05:28:13;;;;;;;11.85;6.30;;;8.30;99.90;;;;;;5089195;28;20038;-37
2022/05/05 05:30:39;;;;;;;12.35;6.28;;;8.30;99.90;;;;;;5088971;28;20032;-38
2022/05/05 05:33:05;;;;;;;11.55;5.95;;;8.40;99.90;;;;;;5072118;28;20040;-38
2022/05/05 05:35:32;;;;;;;12.10;6.50;;;8.50;99.90;;;;;;5062412;28;20024;-38
2022/05/05 05:37:57;;;;;;;10.30;5.68;;;8.50;99.90;;;;;;5072935;28;20032;-37
2022/05/05 05:40:23;;;;;;;11.50;6.97;;;8.50;99.90;;;;;;5071701;28;20051;-38
2022/05/05 05:42:48;;;;;;;13.27;7.13;;;8.50;99.90;;;;;;5082076;28;20048;-38
2022/05/05 05:45:14;;;;;;;10.52;6.10;;;8.60;99.90;;;;;;5072451;28;20027;-37
2022/05/05 05:47:40;;;;;;;17.92;6.70;;;8.70;99.90;;;;;;5089303;28;20024;-37
2022/05/05 05:50:05;;;;;;;25.05;6.60;;;8.70;99.90;;;;;;5089080;28;20473;-37
2022/05/05 05:52:31;;;;;;;12.80;6.75;;;8.70;99.90;;;;;;5074252;28;20044;-37
2022/05/05 05:54:58;;;;;;;11.02;6.03;;;8.70;99.90;;;;;;5062808;28;20020;-37
2022/05/05 05:57:24;;;;;;;10.75;6.25;;;8.70;99.90;;;;;;5071981;28;20174;-38
2022/05/05 05:59:49;;;;;;;16.30;6.38;;;8.70;99.90;;;;;;5067291;28;20479;-38
2022/05/05 06:04:58;;;;;;;11.20;6.70;;;8.70;99.90;;;;;;5048934;28;20072;-38
2022/05/05 06:07:24;;;;;;;16.05;7.40;;;8.80;99.90;;;;;;5074968;28;20048;-38
2022/05/05 06:09:50;;;;;;;11.88;6.65;;;8.80;99.90;;;;;;5052446;28;20498;-38
2022/05/05 06:12:15;;;;;;;13.18;7.13;;;8.90;99.90;;;;;;5046592;28;20032;-38
2022/05/05 06:14:40;;;;;;;19.20;9.18;;;8.90;99.90;;;;;;5048671;28;20048;-38
2022/05/05 06:17:06;;;;;;;11.15;7.40;;;9.00;99.90;;;;;;5048591;28;20506;-38
2022/05/05 06:19:32;;;;;;;11.63;6.97;;;9.00;99.90;;;;;;5048562;28;20029;-38
2022/05/05 06:21:57;;;;;;;10.98;6.60;;;9.10;99.90;;;;;;5047837;28;20086;-38
2022/05/05 06:24:23;;;;;;;19.33;6.63;;;9.20;99.90;;;;;;5051749;28;20406;-38
2022/05/05 06:26:48;;;;;;;13.00;6.70;;;9.30;99.90;;;;;;5075922;28;20069;-38
2022/05/05 06:29:14;;;;;;;16.00;6.38;;;9.40;99.90;;;;;;5057625;28;20033;-38
2022/05/05 06:31:39;;;;;;;23.25;6.95;;;9.40;99.90;;;;;;5055969;28;20063;-38
2022/05/05 06:34:05;;;;;;;11.35;5.95;;;9.40;99.90;;;;;;5055621;28;20059;-38
2022/05/05 06:36:30;;;;;;;13.07;6.72;;;9.50;99.90;;;;;;5053479;28;20254;-38
2022/05/05 06:38:56;;;;;;;14.73;7.22;;;9.50;99.90;;;;;;5055063;28;20393;-38
2022/05/05 06:41:21;;;;;;;7.38;5.30;;;9.60;99.90;;;;;;5059810;28;20201;-38
2022/05/05 06:43:47;;;;;;;14.32;6.53;;;9.70;99.90;;;;;;5060683;28;20096;-38
2022/05/05 06:46:13;;;;;;;17.65;6.60;;;9.80;99.90;;;;;;5056010;28;20032;-38
2022/05/05 06:48:38;;;;;;;10.70;6.70;;;9.90;99.90;;;;;;5057123;28;20033;-38
2022/05/05 06:51:04;;;;;;;13.85;6.65;;;10.00;99.90;;;;;;5072866;28;20115;-37
2022/05/05 06:53:30;;;;;;;14.13;6.10;;;10.10;99.90;;;;;;5085245;28;20438;-37
2022/05/05 06:55:57;;;;;;;14.95;5.90;;;10.10;99.90;;;;;;5073150;28;20139;-37
2022/05/05 06:58:23;;;;;;;23.80;11.50;;;10.20;99.90;;;;;;5089732;28;20481;-39
2022/05/05 07:03:33;;;;;;;10.25;6.00;;;10.40;99.90;;;;;;5090373;28;20331;-37
2022/05/05 07:05:58;;;;;;;9.00;5.05;;;10.50;99.90;;;;;;5085199;28;20440;-38
2022/05/05 07:08:24;;;;;;;11.70;6.50;;;10.60;99.90;;;;;;5060029;28;20036;-37
2022/05/05 07:10:52;;;;;;;13.82;5.72;;;10.70;99.90;;;;;;5059180;28;20040;-38
2022/05/05 07:13:22;;;;;;;10.32;5.35;;;10.90;99.90;;;;;;5053132;28;20387;-37
2022/05/05 07:15:48;;;;;;;11.47;5.27;;;10.90;99.80;;;;;;5050348;28;20029;-38
2022/05/05 07:18:14;;;;;;;11.68;5.60;;;11.00;99.90;;;;;;5050515;28;20091;-41
2022/05/05 07:20:39;;;;;;;8.43;4.70;;;11.10;99.40;;;;;;5049761;28;20351;-38
2022/05/05 07:23:07;;;;;;;12.73;5.03;;;11.10;99.70;;;;;;5049236;28;20025;-37
2022/05/05 07:25:32;;;;;;;9.02;4.57;;;11.30;99.90;;;;;;5069240;28;20204;-38
2022/05/05 07:27:58;;;;;;;10.27;4.93;;;11.30;99.00;;;;;;5084730;28;20043;-42
2022/05/05 07:30:24;;;;;;;12.50;4.97;;;11.50;99.30;;;;;;5090032;28;20119;-38
2022/05/05 07:32:49;;;;;;;14.80;4.88;;;11.60;99.70;;;;;;5089826;28;20093;-38
2022/05/05 07:35:15;;;;;;;11.65;5.03;;;11.70;97.60;;;;;;5090776;28;20024;-37
2022/05/05 07:37:41;;;;;;;13.32;6.25;;;11.90;97.80;;;;;;5067664;28;20114;-37
2022/05/05 07:40:07;;;;;;;8.98;4.05;;;12.00;96.50;;;;;;5050326;28;20166;-38
2022/05/05 07:42:33;;;;;;;11.02;4.78;;;12.10;96.90;;;;;;5049248;28;20029;-37
2022/05/05 07:44:59;;;;;;;13.70;4.95;;;12.20;95.40;;;;;;5057622;28;20028;-38
2022/05/05 07:47:25;;;;;;;9.23;4.50;;;12.30;96.00;;;;;;5060912;28;20012;-37
2022/05/05 07:49:51;;;;;;;7.07;4.13;;;12.60;94.60;;;;;;5069631;28;20414;-38
2022/05/05 07:52:16;;;;;;;10.27;4.38;;;12.70;95.10;;;;;;5070692;28;20028;-37
2022/05/05 07:54:44;;;;;;;10.98;4.35;;;12.90;94.40;;;;;;5070222;28;20367;-37
2022/05/05 07:57:12;;;;;;;8.20;4.10;;;13.00;94.40;;;;;;5069177;28;20102;-38
2022/05/05 07:59:38;;;;;;;17.67;5.85;;;13.10;93.50;;;;;;5069250;28;20573;-37
2022/05/05 08:02:08;;;;;;;12.40;4.38;;;13.20;93.40;;;;;;5069845;28;20024;-37
2022/05/05 08:04:33;;;;;;;10.52;4.20;;;13.50;93.90;;;;;;5070172;28;20059;-37
2022/05/05 08:06:59;;;;;;;10.82;4.53;;;13.70;92.70;;;;;;5070547;28;20056;-38
2022/05/05 08:09:25;;;;;;;11.18;4.82;;;14.00;91.30;;;;;;5070628;28;20024;-38
2022/05/05 08:11:50;;;;;;;13.00;4.40;;;14.00;90.10;;;;;;5069985;28;20094;-37
2022/05/05 08:14:16;;;;;;;6.88;3.90;;;14.20;91.30;;;;;;5070827;28;20063;-37
2022/05/05 08:16:41;;;;;;;10.15;4.25;;;14.30;90.30;;;;;;5070478;28;20032;-38
2022/05/05 08:19:07;;;;;;;12.07;4.07;;;14.60;90.20;;;;;;5070374;28;20393;-38
2022/05/05 08:21:33;;;;;;;8.73;3.60;;;15.00;87.80;;;;;;5070973;28;20434;-38
2022/05/05 08:29:27;;;;;;;14.75;3.33;;;18.20;82.60;;;;;;5070460;28;20043;-38
2022/05/05 08:31:53;;;;;;;8.00;3.17;;;20.00;75.80;;;;;;5068187;28;20524;-39
2022/05/05 08:34:19;;;;;;;8.00;2.53;;;21.40;65.70;;;;;;5069956;28;20470;-39
2022/05/05 08:36:44;;;;;;;9.52;3.50;;;22.60;61.90;;;;;;5068936;28;20055;-38
2022/05/05 08:39:10;;;;;;;13.38;3.33;;;23.80;54.70;;;;;;5068772;28;20262;-38
2022/05/05 08:41:38;;;;;;;8.32;2.95;;;23.60;49.30;;;;;;5069580;28;20021;-38
2022/05/05 08:44:03;;;;;;;5.60;2.65;;;24.20;47.70;;;;;;5071554;28;20054;-39
2022/05/05 08:46:32;;;;;;;8.38;3.33;;;25.80;47.50;;;;;;5070255;28;20024;-39
2022/05/05 08:49:04;;;;;;;5.65;2.95;;;25.60;44.50;;;;;;5070097;28;20494;-38
2022/05/05 08:51:38;;;;;;;9.30;2.50;;;25.40;45.30;;;;;;5069353;28;20615;-38
2022/05/05 08:54:06;;;;;;;6.40;2.33;;;26.40;43.70;;;;;;5069711;28;20029;-38
2022/05/05 08:56:31;;;;;;;4.47;2.75;;;26.70;44.60;;;;;;5070108;28;20028;-38
2022/05/05 08:58:57;;;;;;;7.32;2.67;;;26.70;42.50;;;;;;5065641;28;20421;-39
2022/05/05 09:01:22;;;;;;;5.57;2.30;;;27.00;40.60;;;;;;5057685;28;20025;-39
2022/05/05 09:03:48;;;;;;;5.95;2.30;;;27.60;42.10;;;;;;5059160;28;20024;-39
2022/05/05 09:06:13;;;;;;;4.82;2.55;;;27.70;38.50;;;;;;5061731;28;20032;-39
2022/05/05 09:08:39;;;;;;;6.50;2.30;;;27.60;38.80;;;;;;5059393;28;20379;-39
2022/05/05 09:11:06;;;;;;;5.63;2.00;;;27.70;38.30;;;;;;5059998;28;20037;-39
2022/05/05 09:13:38;;;;;;;9.25;2.45;;;27.90;39.20;;;;;;5059751;28;20520;-38
2022/05/05 09:16:05;;;;;;;8.48;2.33;;;27.70;38.70;;;;;;5057993;28;20082;-39
2022/05/05 09:18:35;;;;;;;6.88;2.50;;;28.00;36.90;;;;;;5061435;28;20152;-39
2022/05/05 09:21:05;;;;;;;3.95;2.00;;;28.60;36.60;;;;;;5060906;28;20436;-39
2022/05/05 09:26:26;;;;;;;3.72;1.80;;;28.20;35.00;;;;;;5061546;28;20024;-39
2022/05/05 09:28:52;;;;;;;4.95;1.98;;;28.20;32.90;;;;;;5055987;28;20079;-39
2022/05/05 09:31:17;;;;;;;7.93;2.63;;;28.10;35.10;;;;;;5050750;28;20029;-39
2022/05/05 09:33:44;;;;;;;6.95;2.30;;;28.60;33.80;;;;;;5049953;28;20040;-39
2022/05/05 09:36:25;;;;;;;4.82;2.13;;;29.00;34.50;;;;;;5050718;28;20489;-39
2022/05/05 09:38:56;;;;;;;5.68;2.42;;;28.90;35.90;;;;;;5050558;28;20021;-39
2022/05/05 09:41:26;;;;;;;4.55;2.38;;;27.40;33.80;;;;;;5050693;28;20029;-39
2022/05/05 09:43:58;;;;;;;;;;;27.70;37.30;;;;;;5050533;28;20025;-39
2022/05/05 09:46:27;;;;;;;8.32;2.80;;;27.90;34.00;;;;;;5050686;28;19927;-39
2022/05/05 09:48:54;;;;;;;5.07;2.00;;;26.70;35.90;;;;;;5050485;28;20282;-40
2022/05/05 09:51:20;;;;;;;3.80;2.30;;;28.30;36.60;;;;;;5050732;28;20036;-39
2022/05/05 09:59:23;;;;;;;8.45;2.88;;;28.10;36.90;;;;;;5059990;28;20036;-39
2022/05/05 10:01:50;;;;;;;6.22;2.13;;;29.50;34.30;;;;;;5059149;28;20111;-39
2022/05/05 10:04:18;;;;;;;7.82;2.03;;;29.90;36.40;;;;;;5053074;28;20150;-39
2022/05/05 10:06:46;;;;;;;4.88;1.85;;;30.40;34.30;;;;;;5050291;28;20021;-39
2022/05/05 10:09:13;;;;;;;3.72;1.80;;;30.80;35.40;;;;;;5050138;28;20045;-39
2022/05/05 10:11:40;;;;;;;5.50;2.28;;;29.80;34.60;;;;;;5049541;28;20020;-39
2022/05/05 10:14:10;;;;;;;4.65;1.73;;;29.30;34.80;;;;;;5050098;28;20478;-39
2022/05/05 10:16:37;;;;;;;4.13;2.00;;;28.50;33.00;;;;;;5049785;28;20037;-39
2022/05/05 10:19:04;;;;;;;3.47;1.73;;;29.00;34.80;;;;;;5048416;28;20501;-39
2022/05/05 10:21:59;;;;;;;6.32;1.90;;;29.80;35.20;;;;;;5048107;28;20104;-39
2022/05/05 10:24:29;;;;;;;5.53;2.00;;;30.10;33.80;;;;;;5047110;28;20416;-39
2022/05/05 10:26:56;;;;;;;5.70;2.47;;;30.40;35.80;;;;;;5050989;28;20021;-39
2022/05/05 10:29:31;;;;;;;8.43;1.70;;;29.60;33.60;;;;;;5069504;28;20378;-39
2022/05/05 10:32:05;;;;;;;5.95;2.45;;;29.90;33.50;;;;;;5072833;28;20032;-39
2022/05/05 10:34:32;;;;;;;4.85;1.95;;;29.70;34.60;;;;;;5074172;28;20599;-39
2022/05/05 10:37:00;;;;;;;4.18;2.00;;;29.70;34.70;;;;;;5065186;28;20379;-39
2022/05/05 10:39:39;;;;;;;3.72;1.70;;;29.10;36.10;;;;;;5060836;28;20025;-39
2022/05/05 10:42:16;;;;;;;4.72;1.90;;;29.20;34.90;;;;;;5067806;28;20105;-39
2022/05/05 10:45:15;;;;;;;4.70;1.65;;;29.70;36.30;;;;;;5071684;28;20478;-39
2022/05/05 10:47:55;;;;;;;6.13;1.75;;;30.30;35.50;;;;;;5062280;28;20315;-40
2022/05/05 10:53:30;;;;;;;6.60;1.73;;;30.90;35.30;;;;;;5062196;28;20077;-38
2022/05/05 10:55:57;;;;;;;5.78;1.60;;;31.90;35.10;;;;;;5064184;28;20502;-39
2022/05/05 10:58:57;;;;;;;3.13;1.30;;;32.10;33.90;;;;;;5061898;28;20044;-39
2022/05/05 11:01:24;;;;;;;4.80;1.70;;;31.20;36.00;;;;;;5063805;28;20082;-39
2022/05/05 11:04:07;;;;;;;5.38;1.30;;;30.80;34.50;;;;;;5061065;28;20104;-39
2022/05/05 11:06:33;;;;;;;3.63;1.25;;;31.30;35.90;;;;;;5062441;28;20507;-39
2022/05/05 11:08:59;;;;;;;2.70;1.30;;;31.10;35.30;;;;;;5053363;28;20013;-38
2022/05/05 11:11:40;;;;;;;3.25;1.30;;;31.60;34.60;;;;;;5072391;28;20513;-38
2022/05/05 11:22:46;;;;;;;5.70;1.70;;;30.90;35.40;;;;;;5059936;28;20038;-38
2022/05/05 11:25:11;;;;;;;2.90;2.17;;;31.00;34.20;;;;;;5061907;28;20016;-39
2022/05/05 11:27:37;;;;;;;4.07;1.50;;;31.20;36.40;;;;;;5062620;28;20075;-38
2022/05/05 11:30:04;;;;;;;4.95;1.33;;;31.40;34.20;;;;;;5060104;28;20033;-38
2022/05/05 11:32:32;;;;;;;3.42;1.25;;;31.00;35.90;;;;;;5057865;28;20024;-39
2022/05/05 11:34:59;;;;;;;3.90;1.52;;;30.20;36.60;;;;;;5061752;28;20036;-38
2022/05/05 11:37:29;;;;;;;4.00;1.75;;;30.40;36.20;;;;;;5061519;28;20611;-38
2022/05/05 11:39:55;;;;;;;3.03;1.70;;;29.70;37.60;;;;;;5061419;28;20024;-38
2022/05/05 11:42:20;;;;;;;5.35;1.92;;;30.50;37.40;;;;;;5059710;28;20122;-39
2022/05/05 11:44:47;;;;;;;4.65;1.73;;;30.50;36.90;;;;;;5059244;28;20518;-38
2022/05/05 11:47:17;;;;;;;3.83;1.63;;;30.20;36.70;;;;;;5061339;28;20012;-39
2022/05/05 11:49:46;;;;;;;3.05;1.50;;;30.10;36.40;;;;;;5061081;28;20063;-38
2022/05/05 11:52:19;;;;;;;5.60;3.70;;;29.70;36.90;;;;;;5058317;28;20077;-38
2022/05/05 11:54:48;;;;;;;5.90;1.63;;;29.40;40.20;;;;;;5050945;28;20032;-38
2022/05/05 11:57:35;;;;;;;3.30;1.30;;;29.20;37.30;;;;;;5053453;28;20460;-38
2022/05/05 12:02:47;;;;;;;4.97;1.85;;;28.80;37.50;;;;;;5060684;28;20055;-38
2022/05/05 12:05:13;;;;;;;3.55;1.30;;;28.80;37.50;;;;;;5057229;28;20029;-38
2022/05/05 12:07:43;;;;;;;3.53;1.63;;;28.80;38.20;;;;;;5049456;28;20417;-38
2022/05/05 12:10:09;;;;;;;4.40;1.70;;;28.10;38.50;;;;;;5055917;28;20555;-37
2022/05/05 12:12:37;;;;;;;3.85;1.45;;;27.30;41.80;;;;;;5054855;28;20033;-38
2022/05/05 12:15:06;;;;;;;4.68;1.33;;;27.30;38.30;;;;;;5049193;28;20344;-38
2022/05/05 12:17:34;;;;;;;3.55;0.93;;;26.90;40.40;;;;;;5049421;28;20025;-37
2022/05/05 12:20:05;;;;;;;3.88;1.52;;;26.50;40.60;;;;;;5048853;28;20017;-38
2022/05/05 12:22:32;;;;;;;5.50;1.90;;;25.70;40.80;;;;;;5048635;28;20060;-38
2022/05/05 12:25:15;;;;;;;4.70;1.38;;;25.80;40.70;;;;;;5049042;28;20483;-37
2022/05/05 12:28:05;;;;;;;5.07;1.70;;;25.80;43.60;;;;;;5049429;28;20104;-37
2022/05/05 12:30:35;;;;;;;1.50;1.40;;;25.60;42.10;;;;;;5063845;28;20155;-38
2022/05/05 12:33:02;;;;;;;5.88;1.58;;;25.30;41.60;;;;;;5068326;28;20100;-37
2022/05/05 12:35:33;;;;;;;4.55;1.48;;;25.00;42.30;;;;;;5069043;28;20410;-37
2022/05/05 12:38:00;;;;;;;3.17;1.30;;;25.30;41.60;;;;;;5068721;28;20032;-37
2022/05/05 12:40:26;;;;;;;5.47;2.10;;;25.50;42.00;;;;;;5062115;28;20025;-37
2022/05/05 12:43:00;;;;;;;3.38;1.00;;;25.50;41.80;;;;;;5040969;28;20635;-38
2022/05/05 12:45:28;;;;;;;4.15;1.80;;;25.10;43.70;;;;;;5065954;28;20027;-42
2022/05/05 12:47:58;;;;;;;2.67;1.35;;;25.30;42.40;;;;;;5067164;28;20119;-37
2022/05/05 12:50:27;;;;;;;3.75;1.40;;;25.20;40.70;;;;;;5068015;28;20027;-37
2022/05/05 13:01:05;;;;;;;6.85;1.90;;;24.80;42.80;;;;;;5068659;28;20031;-37
2022/05/05 13:03:31;;;;;;;5.75;1.70;;;25.00;41.60;;;;;;5068142;28;20111;-37
2022/05/05 13:05:57;;;;;;;3.40;1.13;;;25.00;41.60;;;;;;5068691;28;20385;-37
2022/05/05 13:08:23;;;;;;;3.65;1.20;;;24.90;39.30;;;;;;5068757;28;20438;-37
2022/05/05 13:10:48;;;;;;;5.30;1.30;;;24.40;39.20;;;;;;5061759;28;20100;-37
2022/05/05 13:13:14;;;;;;;6.93;1.23;;;24.10;40.70;;;;;;5056856;28;20448;-37
2022/05/05 13:15:41;;;;;;;3.28;1.13;;;24.00;42.10;;;;;;5062246;28;20109;-37
2022/05/05 13:18:07;;;;;;;4.35;1.15;;;24.20;42.90;;;;;;5057937;28;20013;-38
2022/05/05 13:20:33;;;;;;;4.05;1.48;;;24.20;40.30;;;;;;5059723;28;20437;-37
2022/05/05 13:22:59;;;;;;;3.33;2.15;;;24.20;41.90;;;;;;5058662;28;20108;-38
2022/05/05 13:25:25;;;;;;;2.22;1.40;;;24.00;40.80;;;;;;5059577;28;20141;-38
2022/05/05 13:27:50;;;;;;;3.17;1.08;;;24.20;42.30;;;;;;5057952;28;20471;-37
2022/05/05 13:30:16;;;;;;;5.07;1.55;;;24.20;42.50;;;;;;5059527;28;20021;-38
2022/05/05 13:32:41;;;;;;;2.58;1.42;;;24.10;41.80;;;;;;5058733;28;20058;-37
2022/05/05 13:35:08;;;;;;;3.50;1.23;;;24.10;43.50;;;;;;5057687;28;20130;-38
2022/05/05 13:37:33;;;;;;;4.70;1.30;;;24.00;43.40;;;;;;5058498;28;20032;-37